sensor_id;sensor_type;location;lat;lon;timestamp;temperature;humidity
18073;DHT22;9161;47.348;9.648;2023-04-03T00:02:50;7.60;99.90
18073;DHT22;9161;47.348;9.648;2023-04-03T00:07:52;7.50;99.90
18073;DHT22;9161;47.348;9.648;2023-04-03T00:12:55;7.50;99.90
18073;DHT22;9161;47.348;9.648;2023-04-03T00:18:00;7.50;99.90
18073;DHT22;9161;47.348;9.648;2023-04-03T00:23:03;7.40;99.90
18073;DHT22;9161;47.348;9.648;2023-04-03T00:28:05;7.40;99.90
18073;DHT22;9161;47.348;9.648;2023-04-03T00:33:10;7.40;99.90
18073;DHT22;9161;47.348;9.648;2023-04-03T00:38:13;7.30;99.90
18073;DHT22;9161;47.348;9.648;2023-04-03T00:43:18;7.20;99.90
18073;DHT22;9161;47.348;9.648;2023-04-03T00:48:26;7.10;99.90
18073;DHT22;9161;47.348;9.648;2023-04-03T00:53:32;7.00;99.90
18073;DHT22;9161;47.348;9.648;2023-04-03T00:58:38;6.90;99.90
18073;DHT22;9161;47.348;9.648;2023-04-03T01:03:42;6.90;99.90
18073;DHT22;9161;47.348;9.648;2023-04-03T01:08:45;6.90;99.90
18073;DHT22;9161;47.348;9.648;2023-04-03T01:13:49;6.80;99.90
18073;DHT22;9161;47.348;9.648;2023-04-03T01:18:52;6.70;99.90
18073;DHT22;9161;47.348;9.648;2023-04-03T01:24:04;6.60;99.90
18073;DHT22;9161;47.348;9.648;2023-04-03T01:29:08;6.50;99.90
18073;DHT22;9161;47.348;9.648;2023-04-03T01:34:13;6.40;99.90
18073;DHT22;9161;47.348;9.648;2023-04-03T01:39:15;6.40;99.90
18073;DHT22;9161;47.348;9.648;2023-04-03T01:44:18;6.30;99.90
18073;DHT22;9161;47.348;9.648;2023-04-03T01:49:22;6.30;99.90
18073;DHT22;9161;47.348;9.648;2023-04-03T01:54:24;6.20;99.90
18073;DHT22;9161;47.348;9.648;2023-04-03T01:59:26;6.20;99.90
18073;DHT22;9161;47.348;9.648;2023-04-03T02:04:30;6.10;99.90
18073;DHT22;9161;47.348;9.648;2023-04-03T02:09:32;6.10;99.90
18073;DHT22;9161;47.348;9.648;2023-04-03T02:14:35;6.00;99.90
18073;DHT22;9161;47.348;9.648;2023-04-03T02:19:38;6.00;99.90
18073;DHT22;9161;47.348;9.648;2023-04-03T02:24:41;5.90;99.90
18073;DHT22;9161;47.348;9.648;2023-04-03T02:29:42;5.80;99.90
18073;DHT22;9161;47.348;9.648;2023-04-03T02:34:46;5.70;99.90
18073;DHT22;9161;47.348;9.648;2023-04-03T02:39:48;5.60;99.90
18073;DHT22;9161;47.348;9.648;2023-04-03T02:44:50;5.60;99.90
18073;DHT22;9161;47.348;9.648;2023-04-03T02:49:54;5.50;99.90
18073;DHT22;9161;47.348;9.648;2023-04-03T02:54:56;5.40;99.90
18073;DHT22;9161;47.348;9.648;2023-04-03T02:59:58;5.40;99.90
18073;DHT22;9161;47.348;9.648;2023-04-03T03:05:02;5.20;99.90
18073;DHT22;9161;47.348;9.648;2023-04-03T03:10:05;5.10;99.90
18073;DHT22;9161;47.348;9.648;2023-04-03T03:15:08;5.00;99.90
18073;DHT22;9161;47.348;9.648;2023-04-03T03:20:13;5.10;99.90
18073;DHT22;9161;47.348;9.648;2023-04-03T03:25:16;5.10;99.90
18073;DHT22;9161;47.348;9.648;2023-04-03T03:30:18;5.10;99.90
18073;DHT22;9161;47.348;9.648;2023-04-03T03:35:22;4.90;99.90
18073;DHT22;9161;47.348;9.648;2023-04-03T03:40:24;4.80;99.90
18073;DHT22;9161;47.348;9.648;2023-04-03T03:45:26;4.60;99.90
18073;DHT22;9161;47.348;9.648;2023-04-03T03:50:30;4.50;99.90
18073;DHT22;9161;47.348;9.648;2023-04-03T03:55:32;4.40;99.90
18073;DHT22;9161;47.348;9.648;2023-04-03T04:00:35;4.50;99.90
18073;DHT22;9161;47.348;9.648;2023-04-03T04:05:39;4.40;99.90
18073;DHT22;9161;47.348;9.648;2023-04-03T04:10:42;4.40;99.90
18073;DHT22;9161;47.348;9.648;2023-04-03T04:15:44;4.30;99.90
18073;DHT22;9161;47.348;9.648;2023-04-03T04:20:47;4.20;99.90
18073;DHT22;9161;47.348;9.648;2023-04-03T04:25:50;4.20;99.90
18073;DHT22;9161;47.348;9.648;2023-04-03T04:30:53;4.10;99.90
18073;DHT22;9161;47.348;9.648;2023-04-03T04:35:56;4.10;99.90
18073;DHT22;9161;47.348;9.648;2023-04-03T04:40:59;4.10;99.90
18073;DHT22;9161;47.348;9.648;2023-04-03T04:46:02;4.20;99.90
18073;DHT22;9161;47.348;9.648;2023-04-03T04:51:06;4.10;99.90
18073;DHT22;9161;47.348;9.648;2023-04-03T04:56:09;4.10;99.90
18073;DHT22;9161;47.348;9.648;2023-04-03T05:01:12;4.20;99.90
18073;DHT22;9161;47.348;9.648;2023-04-03T05:06:28;4.20;99.90
18073;DHT22;9161;47.348;9.648;2023-04-03T05:11:55;4.20;99.90
18073;DHT22;9161;47.348;9.648;2023-04-03T05:16:57;4.20;99.90
18073;DHT22;9161;47.348;9.648;2023-04-03T05:22:01;4.10;99.90
18073;DHT22;9161;47.348;9.648;2023-04-03T05:27:04;4.20;99.90
18073;DHT22;9161;47.348;9.648;2023-04-03T05:32:05;4.20;99.90
18073;DHT22;9161;47.348;9.648;2023-04-03T05:37:09;4.30;99.90
18073;DHT22;9161;47.348;9.648;2023-04-03T05:42:12;4.40;99.90
18073;DHT22;9161;47.348;9.648;2023-04-03T05:47:14;4.50;99.90
18073;DHT22;9161;47.348;9.648;2023-04-03T05:52:22;4.50;99.90
18073;DHT22;9161;47.348;9.648;2023-04-03T05:57:24;4.40;99.90
18073;DHT22;9161;47.348;9.648;2023-04-03T06:02:27;4.40;99.90
18073;DHT22;9161;47.348;9.648;2023-04-03T06:07:31;4.30;99.90
18073;DHT22;9161;47.348;9.648;2023-04-03T06:12:33;4.30;99.90
18073;DHT22;9161;47.348;9.648;2023-04-03T06:17:36;4.40;99.90
18073;DHT22;9161;47.348;9.648;2023-04-03T06:22:40;4.40;99.90
18073;DHT22;9161;47.348;9.648;2023-04-03T06:27:42;4.30;99.90
18073;DHT22;9161;47.348;9.648;2023-04-03T06:32:45;4.30;99.90
18073;DHT22;9161;47.348;9.648;2023-04-03T06:37:49;4.20;99.90
18073;DHT22;9161;47.348;9.648;2023-04-03T06:42:53;4.10;99.90
18073;DHT22;9161;47.348;9.648;2023-04-03T06:47:55;4.20;99.90
18073;DHT22;9161;47.348;9.648;2023-04-03T06:52:59;4.30;99.90
18073;DHT22;9161;47.348;9.648;2023-04-03T06:58:01;4.50;99.90
18073;DHT22;9161;47.348;9.648;2023-04-03T07:03:04;4.60;99.90
18073;DHT22;9161;47.348;9.648;2023-04-03T07:08:09;4.70;99.90
18073;DHT22;9161;47.348;9.648;2023-04-03T07:13:11;4.80;99.90
18073;DHT22;9161;47.348;9.648;2023-04-03T07:18:13;4.90;99.90
18073;DHT22;9161;47.348;9.648;2023-04-03T07:23:18;5.00;99.90
18073;DHT22;9161;47.348;9.648;2023-04-03T07:28:21;5.10;99.90
18073;DHT22;9161;47.348;9.648;2023-04-03T07:33:24;5.00;99.90
18073;DHT22;9161;47.348;9.648;2023-04-03T07:38:28;5.00;99.90
18073;DHT22;9161;47.348;9.648;2023-04-03T07:43:30;5.20;99.90
18073;DHT22;9161;47.348;9.648;2023-04-03T07:48:33;5.20;99.90
18073;DHT22;9161;47.348;9.648;2023-04-03T07:53:37;5.30;99.90
18073;DHT22;9161;47.348;9.648;2023-04-03T07:58:39;5.40;99.90
18073;DHT22;9161;47.348;9.648;2023-04-03T08:03:42;5.40;99.90
18073;DHT22;9161;47.348;9.648;2023-04-03T08:08:46;5.40;99.90
18073;DHT22;9161;47.348;9.648;2023-04-03T08:13:48;5.40;99.90
18073;DHT22;9161;47.348;9.648;2023-04-03T08:18:51;5.40;99.90
18073;DHT22;9161;47.348;9.648;2023-04-03T08:23:55;5.40;99.90
18073;DHT22;9161;47.348;9.648;2023-04-03T08:28:57;5.40;99.90
18073;DHT22;9161;47.348;9.648;2023-04-03T08:34:00;5.40;99.90
18073;DHT22;9161;47.348;9.648;2023-04-03T08:39:03;5.50;99.90
18073;DHT22;9161;47.348;9.648;2023-04-03T08:44:24;5.50;99.90
18073;DHT22;9161;47.348;9.648;2023-04-03T08:49:29;5.50;99.90
18073;DHT22;9161;47.348;9.648;2023-04-03T08:54:37;5.60;99.90
18073;DHT22;9161;47.348;9.648;2023-04-03T08:59:42;5.70;99.90
18073;DHT22;9161;47.348;9.648;2023-04-03T09:04:44;5.80;99.90
18073;DHT22;9161;47.348;9.648;2023-04-03T09:09:48;5.90;99.90
18073;DHT22;9161;47.348;9.648;2023-04-03T09:14:57;5.90;99.90
18073;DHT22;9161;47.348;9.648;2023-04-03T09:20:08;6.00;99.90
18073;DHT22;9161;47.348;9.648;2023-04-03T09:25:18;6.00;99.90
18073;DHT22;9161;47.348;9.648;2023-04-03T09:30:23;5.90;99.90
18073;DHT22;9161;47.348;9.648;2023-04-03T09:35:27;6.00;99.90
18073;DHT22;9161;47.348;9.648;2023-04-03T09:40:50;6.00;99.90
18073;DHT22;9161;47.348;9.648;2023-04-03T09:45:54;6.00;99.90
18073;DHT22;9161;47.348;9.648;2023-04-03T09:50:59;6.00;99.90
18073;DHT22;9161;47.348;9.648;2023-04-03T09:56:09;6.10;99.90
18073;DHT22;9161;47.348;9.648;2023-04-03T10:01:25;6.20;99.90
18073;DHT22;9161;47.348;9.648;2023-04-03T10:06:31;6.30;99.90
18073;DHT22;9161;47.348;9.648;2023-04-03T10:11:35;6.30;99.90
18073;DHT22;9161;47.348;9.648;2023-04-03T10:16:41;6.40;99.90
18073;DHT22;9161;47.348;9.648;2023-04-03T10:21:51;6.50;99.90
18073;DHT22;9161;47.348;9.648;2023-04-03T10:26:59;6.50;99.90
18073;DHT22;9161;47.348;9.648;2023-04-03T10:32:15;6.50;99.90
18073;DHT22;9161;47.348;9.648;2023-04-03T10:37:25;6.50;99.90
18073;DHT22;9161;47.348;9.648;2023-04-03T10:42:35;6.60;99.90
18073;DHT22;9161;47.348;9.648;2023-04-03T10:47:46;6.90;99.90
18073;DHT22;9161;47.348;9.648;2023-04-03T10:52:57;7.20;99.90
18073;DHT22;9161;47.348;9.648;2023-04-03T10:58:04;7.50;99.90
18073;DHT22;9161;47.348;9.648;2023-04-03T11:03:11;7.70;99.90
18073;DHT22;9161;47.348;9.648;2023-04-03T11:08:24;7.80;99.90
18073;DHT22;9161;47.348;9.648;2023-04-03T11:13:34;7.90;99.90
18073;DHT22;9161;47.348;9.648;2023-04-03T11:18:41;7.90;99.90
18073;DHT22;9161;47.348;9.648;2023-04-03T11:23:46;8.00;99.90
18073;DHT22;9161;47.348;9.648;2023-04-03T11:28:58;8.40;99.90
18073;DHT22;9161;47.348;9.648;2023-04-03T11:34:08;8.80;99.90
18073;DHT22;9161;47.348;9.648;2023-04-03T11:39:20;9.20;99.90
18073;DHT22;9161;47.348;9.648;2023-04-03T11:44:31;9.80;99.90
18073;DHT22;9161;47.348;9.648;2023-04-03T11:49:56;9.60;99.90
18073;DHT22;9161;47.348;9.648;2023-04-03T11:54:58;9.70;99.90
18073;DHT22;9161;47.348;9.648;2023-04-03T12:05:47;9.10;99.90
18073;DHT22;9161;47.348;9.648;2023-04-03T12:11:14;9.00;99.90
18073;DHT22;9161;47.348;9.648;2023-04-03T12:16:22;8.90;99.90
18073;DHT22;9161;47.348;9.648;2023-04-03T12:27:38;9.40;99.90
18073;DHT22;9161;47.348;9.648;2023-04-03T12:32:54;9.70;99.90
18073;DHT22;9161;47.348;9.648;2023-04-03T12:49:43;11.30;99.90
18073;DHT22;9161;47.348;9.648;2023-04-03T12:54:46;11.40;99.90
18073;DHT22;9161;47.348;9.648;2023-04-03T12:59:50;11.20;99.90
18073;DHT22;9161;47.348;9.648;2023-04-03T13:04:55;11.00;99.90
18073;DHT22;9161;47.348;9.648;2023-04-03T13:10:01;10.40;99.90
18073;DHT22;9161;47.348;9.648;2023-04-03T13:15:14;10.10;99.90
18073;DHT22;9161;47.348;9.648;2023-04-03T13:20:21;9.30;99.90
18073;DHT22;9161;47.348;9.648;2023-04-03T13:25:26;9.10;99.90
18073;DHT22;9161;47.348;9.648;2023-04-03T13:30:33;9.20;99.90
18073;DHT22;9161;47.348;9.648;2023-04-03T13:35:38;8.90;99.90
18073;DHT22;9161;47.348;9.648;2023-04-03T13:40:47;9.00;99.90
18073;DHT22;9161;47.348;9.648;2023-04-03T13:45:58;9.00;99.90
18073;DHT22;9161;47.348;9.648;2023-04-03T13:51:02;8.90;99.90
18073;DHT22;9161;47.348;9.648;2023-04-03T13:56:08;8.60;99.90
18073;DHT22;9161;47.348;9.648;2023-04-03T14:01:18;8.50;99.90
18073;DHT22;9161;47.348;9.648;2023-04-03T14:06:22;8.30;99.90
18073;DHT22;9161;47.348;9.648;2023-04-03T14:11:28;8.40;99.90
18073;DHT22;9161;47.348;9.648;2023-04-03T14:16:36;8.20;99.90
18073;DHT22;9161;47.348;9.648;2023-04-03T14:21:39;8.20;99.90
18073;DHT22;9161;47.348;9.648;2023-04-03T14:26:41;8.10;99.90
18073;DHT22;9161;47.348;9.648;2023-04-03T14:31:46;7.90;99.90
18073;DHT22;9161;47.348;9.648;2023-04-03T14:36:50;8.00;99.90
18073;DHT22;9161;47.348;9.648;2023-04-03T14:41:53;8.00;99.90
18073;DHT22;9161;47.348;9.648;2023-04-03T14:46:56;7.80;99.90
18073;DHT22;9161;47.348;9.648;2023-04-03T14:51:59;7.80;99.90
18073;DHT22;9161;47.348;9.648;2023-04-03T14:57:01;7.80;99.90
18073;DHT22;9161;47.348;9.648;2023-04-03T15:02:19;7.80;99.90
18073;DHT22;9161;47.348;9.648;2023-04-03T15:07:27;7.70;99.90
18073;DHT22;9161;47.348;9.648;2023-04-03T15:12:30;7.80;99.90
18073;DHT22;9161;47.348;9.648;2023-04-03T15:17:34;7.80;99.90
18073;DHT22;9161;47.348;9.648;2023-04-03T15:22:38;7.80;99.90
18073;DHT22;9161;47.348;9.648;2023-04-03T15:27:40;7.90;99.90
18073;DHT22;9161;47.348;9.648;2023-04-03T15:32:44;7.90;99.90
18073;DHT22;9161;47.348;9.648;2023-04-03T15:37:46;7.80;99.90
18073;DHT22;9161;47.348;9.648;2023-04-03T15:42:50;7.70;99.90
18073;DHT22;9161;47.348;9.648;2023-04-03T15:47:55;7.60;99.90
18073;DHT22;9161;47.348;9.648;2023-04-03T15:52:58;7.50;99.90
18073;DHT22;9161;47.348;9.648;2023-04-03T15:58:02;7.40;99.90
18073;DHT22;9161;47.348;9.648;2023-04-03T16:03:10;7.50;99.90
18073;DHT22;9161;47.348;9.648;2023-04-03T16:08:13;7.50;99.90
18073;DHT22;9161;47.348;9.648;2023-04-03T16:13:16;7.40;99.90
18073;DHT22;9161;47.348;9.648;2023-04-03T16:18:20;7.20;99.90
18073;DHT22;9161;47.348;9.648;2023-04-03T16:23:23;6.80;99.90
18073;DHT22;9161;47.348;9.648;2023-04-03T16:28:25;6.60;99.90
18073;DHT22;9161;47.348;9.648;2023-04-03T16:33:29;6.60;99.90
18073;DHT22;9161;47.348;9.648;2023-04-03T16:38:32;6.50;99.90
18073;DHT22;9161;47.348;9.648;2023-04-03T16:43:35;6.40;99.90
18073;DHT22;9161;47.348;9.648;2023-04-03T16:48:39;6.40;99.90
18073;DHT22;9161;47.348;9.648;2023-04-03T16:53:41;6.40;99.90
18073;DHT22;9161;47.348;9.648;2023-04-03T16:58:44;6.30;99.90
18073;DHT22;9161;47.348;9.648;2023-04-03T17:03:48;6.20;99.90
18073;DHT22;9161;47.348;9.648;2023-04-03T17:08:52;6.10;99.90
18073;DHT22;9161;47.348;9.648;2023-04-03T17:13:54;6.00;99.90
18073;DHT22;9161;47.348;9.648;2023-04-03T17:18:59;6.00;99.90
18073;DHT22;9161;47.348;9.648;2023-04-03T17:24:04;5.90;99.90
18073;DHT22;9161;47.348;9.648;2023-04-03T17:29:09;5.80;99.90
18073;DHT22;9161;47.348;9.648;2023-04-03T17:34:13;5.70;99.90
18073;DHT22;9161;47.348;9.648;2023-04-03T17:39:16;5.60;99.90
18073;DHT22;9161;47.348;9.648;2023-04-03T17:44:19;5.60;99.90
18073;DHT22;9161;47.348;9.648;2023-04-03T17:49:23;5.50;99.90
18073;DHT22;9161;47.348;9.648;2023-04-03T17:54:26;5.40;99.90
18073;DHT22;9161;47.348;9.648;2023-04-03T17:59:29;5.30;99.90
18073;DHT22;9161;47.348;9.648;2023-04-03T18:04:34;5.30;99.90
18073;DHT22;9161;47.348;9.648;2023-04-03T18:09:38;5.30;99.90
18073;DHT22;9161;47.348;9.648;2023-04-03T18:14:43;5.20;99.90
18073;DHT22;9161;47.348;9.648;2023-04-03T18:19:48;5.10;99.90
18073;DHT22;9161;47.348;9.648;2023-04-03T18:24:52;5.10;99.90
18073;DHT22;9161;47.348;9.648;2023-04-03T18:29:58;5.20;99.90
18073;DHT22;9161;47.348;9.648;2023-04-03T18:35:08;5.10;99.90
18073;DHT22;9161;47.348;9.648;2023-04-03T18:40:13;5.10;99.90
18073;DHT22;9161;47.348;9.648;2023-04-03T18:45:20;5.00;99.90
18073;DHT22;9161;47.348;9.648;2023-04-03T18:50:29;5.00;99.90
18073;DHT22;9161;47.348;9.648;2023-04-03T18:55:33;4.90;99.90
18073;DHT22;9161;47.348;9.648;2023-04-03T19:00:43;4.90;99.90
18073;DHT22;9161;47.348;9.648;2023-04-03T19:05:48;4.80;99.90
18073;DHT22;9161;47.348;9.648;2023-04-03T19:11:00;4.70;99.90
18073;DHT22;9161;47.348;9.648;2023-04-03T19:16:03;4.60;99.90
18073;DHT22;9161;47.348;9.648;2023-04-03T19:21:10;4.50;99.90
18073;DHT22;9161;47.348;9.648;2023-04-03T19:26:16;4.50;99.90
18073;DHT22;9161;47.348;9.648;2023-04-03T19:31:21;4.50;99.90
18073;DHT22;9161;47.348;9.648;2023-04-03T19:36:27;4.40;99.90
18073;DHT22;9161;47.348;9.648;2023-04-03T19:41:34;4.20;99.90
18073;DHT22;9161;47.348;9.648;2023-04-03T19:46:38;4.10;99.90
18073;DHT22;9161;47.348;9.648;2023-04-03T19:51:53;4.20;99.90
18073;DHT22;9161;47.348;9.648;2023-04-03T19:56:57;4.10;99.90
18073;DHT22;9161;47.348;9.648;2023-04-03T20:02:00;4.00;99.90
18073;DHT22;9161;47.348;9.648;2023-04-03T20:07:05;3.90;99.90
18073;DHT22;9161;47.348;9.648;2023-04-03T20:12:09;3.90;99.90
18073;DHT22;9161;47.348;9.648;2023-04-03T20:17:12;4.00;99.90
18073;DHT22;9161;47.348;9.648;2023-04-03T20:22:17;4.00;99.90
18073;DHT22;9161;47.348;9.648;2023-04-03T20:27:19;3.80;99.90
18073;DHT22;9161;47.348;9.648;2023-04-03T20:32:25;3.70;99.90
18073;DHT22;9161;47.348;9.648;2023-04-03T20:37:29;3.70;99.90
18073;DHT22;9161;47.348;9.648;2023-04-03T20:42:34;3.50;99.90
18073;DHT22;9161;47.348;9.648;2023-04-03T20:47:36;3.50;99.90
18073;DHT22;9161;47.348;9.648;2023-04-03T20:52:40;3.50;99.90
18073;DHT22;9161;47.348;9.648;2023-04-03T20:57:43;3.40;99.90
18073;DHT22;9161;47.348;9.648;2023-04-03T21:02:55;3.30;99.90
18073;DHT22;9161;47.348;9.648;2023-04-03T21:19:21;2.70;99.90
18073;DHT22;9161;47.348;9.648;2023-04-03T21:24:24;2.50;99.90
18073;DHT22;9161;47.348;9.648;2023-04-03T21:29:26;2.50;99.90
18073;DHT22;9161;47.348;9.648;2023-04-03T21:34:30;2.40;99.90
18073;DHT22;9161;47.348;9.648;2023-04-03T21:39:32;2.20;99.90
18073;DHT22;9161;47.348;9.648;2023-04-03T21:44:36;2.00;99.90
18073;DHT22;9161;47.348;9.648;2023-04-03T21:49:39;2.00;99.90
18073;DHT22;9161;47.348;9.648;2023-04-03T21:54:42;2.20;99.90
18073;DHT22;9161;47.348;9.648;2023-04-03T21:59:48;2.20;99.90
18073;DHT22;9161;47.348;9.648;2023-04-03T22:04:52;2.30;99.90
18073;DHT22;9161;47.348;9.648;2023-04-03T22:09:55;2.20;99.90
18073;DHT22;9161;47.348;9.648;2023-04-03T22:14:57;2.00;99.90
18073;DHT22;9161;47.348;9.648;2023-04-03T22:20:01;1.80;99.90
18073;DHT22;9161;47.348;9.648;2023-04-03T22:25:05;1.60;99.90
18073;DHT22;9161;47.348;9.648;2023-04-03T22:30:08;1.30;99.90
18073;DHT22;9161;47.348;9.648;2023-04-03T22:35:13;1.30;99.90
18073;DHT22;9161;47.348;9.648;2023-04-03T22:40:16;1.60;99.90
18073;DHT22;9161;47.348;9.648;2023-04-03T22:45:19;1.40;99.90
18073;DHT22;9161;47.348;9.648;2023-04-03T22:50:23;1.70;99.90
18073;DHT22;9161;47.348;9.648;2023-04-03T22:55:26;1.70;99.90
18073;DHT22;9161;47.348;9.648;2023-04-03T23:00:28;1.50;99.90
18073;DHT22;9161;47.348;9.648;2023-04-03T23:05:32;1.40;99.90
18073;DHT22;9161;47.348;9.648;2023-04-03T23:10:34;1.30;99.90
18073;DHT22;9161;47.348;9.648;2023-04-03T23:15:36;1.10;99.90
18073;DHT22;9161;47.348;9.648;2023-04-03T23:20:40;1.10;99.90
18073;DHT22;9161;47.348;9.648;2023-04-03T23:25:43;1.40;99.90
18073;DHT22;9161;47.348;9.648;2023-04-03T23:30:45;1.30;99.90
18073;DHT22;9161;47.348;9.648;2023-04-03T23:35:48;1.40;99.90
18073;DHT22;9161;47.348;9.648;2023-04-03T23:40:54;1.20;99.90
18073;DHT22;9161;47.348;9.648;2023-04-03T23:45:57;1.00;99.90
18073;DHT22;9161;47.348;9.648;2023-04-03T23:51:01;0.90;99.90
18073;DHT22;9161;47.348;9.648;2023-04-03T23:56:04;0.90;99.90
